Maritime — WCZ5279 — position and weather

sailwx.info

Track history (hours):
 
Tides and Currents Weather Stations Pressure Air Temp Water Temp Dewpoint Dewpoint Depression Visibility Wind Speed Wind Dir Waves Ship Positions

Maritime

Owner: ERGON MARINE & INDUSTRIAL SUPPLY, VICKSBURG, MS. More information available from US FCC via Universal Licensing System.

Last reported at 2017-May-29 03:30 UTC. Time now 2017-May-29 03:50 UTC.
Position N 32°23' W 090°53'.

; draft 3 m.

Type: Towing. MMSI: 367327920.

Date/timePositionNaut miles runAvg speedWind from/ knotsBaromVisibWave heightAir tempDewpointWater temp
2017-May-29 03:30N 32°23' W 090°53'0 0.0
2017-May-29 03:00N 32°23' W 090°53'0 0.0
2017-May-29 02:30N 32°23' W 090°53'0 0.0
2017-May-29 02:00N 32°23' W 090°53'0 0.0
2017-May-29 01:30N 32°23' W 090°53'0 0.0
2017-May-29 01:00N 32°23' W 090°53'0 0.2
2017-May-29 00:30N 32°23' W 090°53'1 2.9
2017-May-29 00:00N 32°22' W 090°53'2 3.4
2017-May-28 23:30N 32°20' W 090°54'1 1.4
2017-May-28 23:01N 32°20' W 090°54'0 0.0
2017-May-28 22:30N 32°20' W 090°54'2 4.2
2017-May-28 22:00N 32°22' W 090°53'0 0.0
2017-May-28 21:30N 32°22' W 090°53'0 0.0
2017-May-28 21:00N 32°22' W 090°53'1 2.4
2017-May-28 20:30N 32°21' W 090°54'1 1.3
2017-May-28 20:00N 32°20' W 090°54'2 3.5
2017-May-28 19:30N 32°22' W 090°53'0 0.0
2017-May-28 19:00N 32°22' W 090°53'0 0.0
2017-May-28 18:30N 32°22' W 090°53'1 2.1
2017-May-28 18:00N 32°23' W 090°52'1 2.1
2017-May-28 17:30N 32°22' W 090°53'0 0.0
2017-May-28 17:00N 32°22' W 090°53'0 0.0
2017-May-28 16:30N 32°22' W 090°53'0 0.0
2017-May-28 16:00N 32°22' W 090°53'0 0.4
2017-May-28 15:30N 32°22' W 090°53'2 4.1
2017-May-28 15:00N 32°23' W 090°55'1 1.1
2017-May-28 14:00N 32°23' W 090°53'0 0.0
2017-May-28 13:30N 32°23' W 090°53'0 0.0
2017-May-28 13:00N 32°23' W 090°53'1 1.9
2017-May-28 12:30N 32°22' W 090°53'2 3.9
2017-May-28 12:00N 32°20' W 090°54'1 1.7
2017-May-28 11:30N 32°20' W 090°54'0 0.0
2017-May-28 11:00N 32°20' W 090°54'0 0.0
2017-May-28 10:30N 32°20' W 090°54'0 0.6
2017-May-28 10:00N 32°20' W 090°54'2 3.4
2017-May-28 09:30N 32°21' W 090°53'0 0.0
2017-May-28 09:00N 32°21' W 090°53'1 1.5
2017-May-28 08:30N 32°22' W 090°53'0 0.8
2017-May-28 08:00N 32°22' W 090°53'0 0.2
2017-May-28 07:30N 32°22' W 090°53'0 0.8
2017-May-28 07:00N 32°22' W 090°53'1 2.5
2017-May-28 06:30N 32°23' W 090°53'0 0.0
2017-May-28 06:00N 32°23' W 090°53'0 0.0
2017-May-28 05:30N 32°23' W 090°53'0 0.0
2017-May-28 05:00N 32°23' W 090°53'0 0.0
2017-May-28 04:30N 32°23' W 090°53'0 0.0
2017-May-28 04:00N 32°23' W 090°53'0 0.0
2017-May-28 03:30N 32°23' W 090°53'0 0.0
2017-May-28 03:00N 32°23' W 090°53'1 1.9
2017-May-28 02:30N 32°23' W 090°52'1 2.1
2017-May-28 02:00N 32°22' W 090°53'0 0.1
2017-May-28 01:30N 32°22' W 090°53'1 1.4
2017-May-28 01:00N 32°22' W 090°53'2 3.5
2017-May-28 00:30N 32°23' W 090°55'2 3.8
2017-May-28 00:00N 32°22' W 090°53'2 3.4
2017-May-27 23:30N 32°21' W 090°53'1 2.1
2017-May-27 23:00N 32°20' W 090°54'0 0.0
2017-May-27 22:30N 32°20' W 090°54'1 1.3
2017-May-27 22:00N 32°20' W 090°54'0 0.6
2017-May-27 21:30N 32°20' W 090°54'1 1.7
2017-May-27 21:00N 32°20' W 090°54'2 3.8
2017-May-27 20:30N 32°18' W 090°55'0 0.3
2017-May-27 20:00N 32°18' W 090°55'0 0.1
2017-May-27 19:30N 32°18' W 090°55'0 0.1
2017-May-27 19:00N 32°18' W 090°55'0 0.2
2017-May-27 18:30N 32°18' W 090°55'0 0.2
2017-May-27 18:00N 32°18' W 090°55'0 0.3
2017-May-27 17:30N 32°18' W 090°55'3 5.9
2017-May-27 17:00N 32°21' W 090°53'1 2.3
2017-May-27 16:30N 32°22' W 090°53'0 0.1
2017-May-27 16:00N 32°22' W 090°53'0 0.0
2017-May-27 15:30N 32°22' W 090°53'0 0.0
2017-May-27 15:00N 32°22' W 090°53'2 1.6
2017-May-27 14:00N 32°23' W 090°53'1 1.3
2017-May-27 13:30N 32°23' W 090°53'0 0.8
2017-May-27 13:00N 32°22' W 090°53'1 1.6
2017-May-27 12:30N 32°22' W 090°53'2 3.8
2017-May-27 12:00N 32°20' W 090°54'0 0.4
2017-May-27 11:30N 32°20' W 090°54'0 0.0
2017-May-27 11:00N 32°20' W 090°54'1 1.0
2017-May-27 10:30N 32°20' W 090°54'2 3.4
2017-May-27 10:00N 32°22' W 090°53'1 1.7
2017-May-27 09:30N 32°22' W 090°52'1 1.4
2017-May-27 09:00N 32°23' W 090°53'0 0.5
2017-May-27 08:30N 32°23' W 090°53'1 1.3
2017-May-27 08:00N 32°23' W 090°53'0 0.0
2017-May-27 07:30N 32°23' W 090°53'0 0.0
2017-May-27 07:00N 32°23' W 090°53'0 0.0
2017-May-27 06:30N 32°23' W 090°53'0 0.0
2017-May-27 06:00N 32°23' W 090°53'0 0.0
2017-May-27 05:30N 32°23' W 090°53'0 0.3
2017-May-27 05:00N 32°23' W 090°53'1 2.6
2017-May-27 04:30N 32°23' W 090°54'0 0.2
2017-May-27 04:00N 32°23' W 090°54'2 3.5
2017-May-27 03:30N 32°22' W 090°53'1 1.3
2017-May-27 03:00N 32°22' W 090°53'0 0.7
2017-May-27 02:30N 32°22' W 090°53'2 3.8
2017-May-27 02:00N 32°24' W 090°55'1 2.0
2017-May-27 01:30N 32°23' W 090°54'1 2.3
2017-May-27 01:00N 32°22' W 090°53'1 2.3
2017-May-27 00:30N 32°21' W 090°53'1 2.4
2017-May-27 00:00N 32°20' W 090°54'0 0.0
2017-May-26 23:30N 32°20' W 090°54'1 1.1
2017-May-26 23:00N 32°20' W 090°54'1 2.3
2017-May-26 22:30N 32°21' W 090°53'2 4.3
2017-May-26 22:00N 32°23' W 090°53'1 1.8
2017-May-26 21:30N 32°23' W 090°53'0 1.0
2017-May-26 21:00N 32°23' W 090°54'0 0.1
2017-May-26 20:30N 32°23' W 090°54'1 2.1
2017-May-26 20:00N 32°23' W 090°53'1 1.5
2017-May-26 19:30N 32°23' W 090°54'0 0.8
2017-May-26 19:00N 32°23' W 090°54'1 1.9
2017-May-26 18:30N 32°23' W 090°53'0 0.7
2017-May-26 18:00N 32°23' W 090°53'0 0.2
2017-May-26 17:30N 32°23' W 090°53'0 0.0
2017-May-26 17:00N 32°23' W 090°53'0 0.0
2017-May-26 16:30N 32°23' W 090°53'0 0.0
2017-May-26 16:00N 32°23' W 090°53'0 0.8
2017-May-26 15:30N 32°23' W 090°53'0 0.0
2017-May-26 15:00N 32°23' W 090°53'1 0.8
2017-May-26 14:00N 32°23' W 090°54'0 0.5
2017-May-26 13:30N 32°23' W 090°53'2 3.8
2017-May-26 13:00N 32°21' W 090°53'1 1.8
2017-May-26 12:30N 32°20' W 090°54'0 0.0
2017-May-26 12:00N 32°20' W 090°54'0 0.8
2017-May-26 11:30N 32°20' W 090°54'1 1.0
2017-May-26 11:00N 32°20' W 090°54'0 0.0
2017-May-26 10:30N 32°20' W 090°54'3 5.4
2017-May-26 10:00N 32°22' W 090°53'1 2.4
2017-May-26 09:30N 32°23' W 090°53'0 0.0
2017-May-26 09:00N 32°23' W 090°53'0 0.0
2017-May-26 08:30N 32°23' W 090°53'0 0.0
2017-May-26 08:00N 32°23' W 090°53'0 0.0
2017-May-26 07:30N 32°23' W 090°53'0 0.0
2017-May-26 07:00N 32°23' W 090°53'0 0.0
2017-May-26 06:30N 32°23' W 090°53'0 0.0
2017-May-26 06:00N 32°23' W 090°53'0 0.8
2017-May-26 05:30N 32°23' W 090°54'1 1.1
2017-May-26 05:00N 32°23' W 090°53'0 0.0
2017-May-26 04:30N 32°23' W 090°53'0 0.6
2017-May-26 04:00N 32°23' W 090°53'0 0.0
2017-May-26 03:30N 32°23' W 090°53'0 0.0
2017-May-26 03:00N 32°23' W 090°53'0 0.8
2017-May-26 02:30N 32°23' W 090°53'0 0.0
2017-May-26 02:00N 32°23' W 090°53'0 0.2
2017-May-26 01:30N 32°23' W 090°53'1 1.8
2017-May-26 01:00N 32°22' W 090°53'2 3.2
2017-May-26 00:30N 32°23' W 090°55'2 3.8
2017-May-26 00:00N 32°22' W 090°53'2 4.4
2017-May-25 23:30N 32°20' W 090°54'1 1.2
2017-May-25 23:00N 32°20' W 090°54'1 1.4
2017-May-25 22:30N 32°20' W 090°54'0 0.0
2017-May-25 22:00N 32°20' W 090°54'2 4.3
2017-May-25 21:30N 32°22' W 090°53'1 2.2
2017-May-25 21:00N 32°23' W 090°53'0 0.0
2017-May-25 20:30N 32°23' W 090°53'0 0.9
2017-May-25 20:00N 32°23' W 090°54'0 0.7
2017-May-25 19:30N 32°23' W 090°53'1 2.8
2017-May-25 19:00N 32°22' W 090°53'0 0.3
2017-May-25 18:30N 32°22' W 090°53'0 0.7
2017-May-25 18:00N 32°22' W 090°53'1 2.6
2017-May-25 17:30N 32°23' W 090°53'0 0.1
2017-May-25 17:00N 32°23' W 090°53'1 2.8
2017-May-25 16:30N 32°22' W 090°53'1 2.5
2017-May-25 16:00N 32°23' W 090°53'0 0.5
2017-May-25 15:30N 32°23' W 090°53'0 0.4
2017-May-25 15:00N 32°23' W 090°53'3 2.5
2017-May-25 14:00N 32°21' W 090°54'0 0.7
2017-May-25 13:30N 32°20' W 090°54'0 0.0
2017-May-25 13:00N 32°20' W 090°54'0 0.0
2017-May-25 12:31N 32°20' W 090°54'0 0.0
2017-May-25 12:00N 32°20' W 090°54'0 0.0
2017-May-25 11:30N 32°20' W 090°54'1 1.3
2017-May-25 11:00N 32°20' W 090°54'0 0.0
2017-May-25 10:30N 32°20' W 090°54'2 4.0
2017-May-25 10:00N 32°21' W 090°53'0 0.0
2017-May-25 09:30N 32°21' W 090°53'0 0.0
2017-May-25 09:00N 32°21' W 090°53'0 0.0
2017-May-25 08:30N 32°21' W 090°53'0 0.0
2017-May-25 08:00N 32°21' W 090°53'0 0.0
2017-May-25 07:30N 32°21' W 090°53'0 0.0
2017-May-25 07:01N 32°21' W 090°53'0 0.0
2017-May-25 06:30N 32°21' W 090°53'0 0.0
2017-May-25 06:00N 32°21' W 090°53'0 0.0
2017-May-25 05:30N 32°21' W 090°53'0 0.0
2017-May-25 05:00N 32°21' W 090°53'0 0.0
2017-May-25 04:30N 32°21' W 090°53'0 0.0
2017-May-25 04:00N 32°21' W 090°53'2 3.2
2017-May-25 03:30N 32°20' W 090°54'0 0.9
2017-May-25 03:00N 32°20' W 090°54'0 0.0
2017-May-25 02:30N 32°20' W 090°54'0 0.0
2017-May-25 02:00N 32°20' W 090°54'0 0.0
2017-May-25 01:30N 32°20' W 090°54'0 0.0
2017-May-25 01:00N 32°20' W 090°54'0 0.0
2017-May-25 00:31N 32°20' W 090°54'0 0.0
2017-May-25 00:00N 32°20' W 090°54'2 4.3
2017-May-24 23:30N 32°18' W 090°56'2 3.9
2017-May-24 23:01N 32°19' W 090°54'0 0.3
2017-May-24 22:30N 32°20' W 090°54'0 0.0
2017-May-24 22:01N 32°20' W 090°54'0 0.1
2017-May-24 21:30N 32°20' W 090°54'2 4.3
2017-May-24 21:01N 32°18' W 090°56'0 0.1
2017-May-24 20:31N 32°18' W 090°56'2 3.8
2017-May-24 20:00N 32°19' W 090°54'0 0.7
2017-May-24 19:30N 32°20' W 090°54'3 5.9
2017-May-24 19:00N 32°21' W 090°57'0 0.5
2017-May-24 18:30N 32°21' W 090°57'1 1.0
2017-May-24 18:00N 32°21' W 090°56'2 4.6
2017-May-24 17:30N 32°20' W 090°54'0 0.0
2017-May-24 17:00N 32°20' W 090°54'2 4.3
2017-May-24 16:30N 32°18' W 090°56'1 1.2
2017-May-24 16:00N 32°18' W 090°55'2 3.2
2017-May-24 15:30N 32°20' W 090°54'2 3.7
2017-May-24 15:00N 32°18' W 090°55'1 1.3
2017-May-24 14:30N 32°18' W 090°56'2 2.5
2017-May-24 13:30N 32°20' W 090°54'3 6.8
2017-May-24 13:00N 32°21' W 090°57'2 3.7
2017-May-24 12:30N 32°21' W 090°55'2 3.5
2017-May-24 12:00N 32°20' W 090°54'0 0.0
2017-May-24 11:30N 32°20' W 090°54'0 0.0
2017-May-24 11:01N 32°20' W 090°54'0 0.0
2017-May-24 10:30N 32°20' W 090°54'0 0.0
2017-May-24 10:00N 32°20' W 090°54'2 3.3
2017-May-24 09:30N 32°21' W 090°55'0 0.6
2017-May-24 09:01N 32°21' W 090°55'2 3.8
2017-May-24 08:31N 32°20' W 090°54'3 5.0
2017-May-24 08:01N 32°21' W 090°56'1 2.6
2017-May-24 07:30N 32°21' W 090°58'2 3.8
2017-May-24 07:00N 32°21' W 090°56'2 4.1
2017-May-24 06:30N 32°20' W 090°54'0 0.0
2017-May-24 06:00N 32°20' W 090°54'2 4.0
2017-May-24 05:30N 32°21' W 090°56'2 3.2
2017-May-24 05:00N 32°20' W 090°54'0 0.8
2017-May-24 04:30N 32°20' W 090°54'3 5.5
2017-May-24 04:00N 32°22' W 090°53'2 4.9
2017-May-24 03:30N 32°24' W 090°55'1 1.0
2017-May-24 03:01N 32°23' W 090°55'2 4.0
2017-May-24 02:30N 32°22' W 090°53'1 2.1
2017-May-24 02:00N 32°23' W 090°53'2 3.6
2017-May-24 01:30N 32°21' W 090°53'1 1.3
2017-May-24 01:00N 32°22' W 090°53'1 2.8
2017-May-24 00:30N 32°23' W 090°53'0 0.6
2017-May-24 00:00N 32°23' W 090°53'0 0.6
2017-May-23 23:30N 32°23' W 090°53'0 0.5
2017-May-23 23:00N 32°23' W 090°53'1 1.5
2017-May-23 22:30N 32°23' W 090°54'1 2.1
2017-May-23 22:00N 32°22' W 090°53'1 3.0
2017-May-23 21:30N 32°23' W 090°55'1 2.4
2017-May-23 21:00N 32°22' W 090°53'2 3.1
2017-May-23 20:30N 32°21' W 090°53'2 4.4
2017-May-23 20:00N 32°23' W 090°53'2 4.1
2017-May-23 19:30N 32°21' W 090°53'2 4.7
2017-May-23 19:00N 32°21' W 090°56'1 2.0
2017-May-23 18:30N 32°21' W 090°57'0 0.0
2017-May-23 18:00N 32°21' W 090°57'0 0.0
2017-May-23 17:30N 32°21' W 090°57'0 0.2
2017-May-23 17:00N 32°21' W 090°57'1 1.2
2017-May-23 16:30N 32°21' W 090°56'2 4.0
2017-May-23 16:00N 32°20' W 090°54'2 3.1
2017-May-23 15:30N 32°22' W 090°53'0 0.2
2017-May-23 15:00N 32°21' W 090°53'2 3.3
2017-May-23 14:30N 32°23' W 090°53'0 0.0
2017-May-23 13:30N 32°23' W 090°53'0 0.7
2017-May-23 13:00N 32°23' W 090°53'0 0.6
2017-May-23 12:30N 32°23' W 090°53'1 3.0
2017-May-23 12:00N 32°22' W 090°53'1 2.7
2017-May-23 11:30N 32°21' W 090°53'1 2.3
2017-May-23 11:00N 32°20' W 090°54'2 4.9
2017-May-23 10:30N 32°22' W 090°53'1 2.8
2017-May-23 10:00N 32°23' W 090°53'1 2.8
2017-May-23 09:30N 32°22' W 090°53'2 4.1
2017-May-23 09:00N 32°20' W 090°54'2 4.0
2017-May-23 08:30N 32°21' W 090°56'0 0.0
2017-May-23 08:00N 32°21' W 090°56'0 0.0
2017-May-23 07:30N 32°21' W 090°56'2 3.5
2017-May-23 07:00N 32°20' W 090°54'3 5.7
2017-May-23 06:30N 32°23' W 090°53'1 1.1
2017-May-23 06:00N 32°23' W 090°53'0 0.2
2017-May-23 05:30N 32°23' W 090°53'0 0.4
2017-May-23 05:00N 32°23' W 090°53'0 0.2
2017-May-23 04:30N 32°23' W 090°53'0 0.0
2017-May-23 04:00N 32°23' W 090°53'0 0.0
2017-May-23 03:30N 32°23' W 090°53'0 0.0
2017-May-23 03:00N 32°23' W 090°53'0 0.0
2017-May-23 02:30N 32°23' W 090°53'0 0.5
2017-May-23 02:00N 32°23' W 090°54'0 0.5
2017-May-23 01:30N 32°23' W 090°54'0 0.1
2017-May-23 01:00N 32°23' W 090°54'1 2.7
2017-May-23 00:30N 32°23' W 090°53'2 4.5
2017-May-23 00:00N 32°21' W 090°54'1 2.0
2017-May-22 23:30N 32°20' W 090°54'1 2.2
2017-May-22 23:00N 32°19' W 090°55'1 2.5
2017-May-22 22:30N 32°18' W 090°56'0 0.0
2017-May-22 22:00N 32°18' W 090°56'0 0.1
2017-May-22 21:30N 32°18' W 090°56'0 0.5
2017-May-22 21:00N 32°18' W 090°56'4 7.3
2017-May-22 20:31N 32°21' W 090°53'2 4.8
2017-May-22 20:01N 32°23' W 090°53'0 0.4
2017-May-22 19:30N 32°23' W 090°53'0 0.0
2017-May-22 19:01N 32°23' W 090°53'0 0.0
2017-May-22 18:31N 32°23' W 090°53'0 0.0
2017-May-22 18:00N 32°23' W 090°53'0 0.0
2017-May-22 17:30N 32°23' W 090°53'0 0.0
2017-May-22 17:01N 32°23' W 090°53'0 0.0
2017-May-22 16:31N 32°23' W 090°53'0 0.0
2017-May-22 16:01N 32°23' W 090°53'0 0.0
2017-May-22 15:31N 32°23' W 090°53'0 0.0
2017-May-22 15:01N 32°23' W 090°53'0 0.0
2017-May-22 14:01N 32°23' W 090°53'0 0.0
2017-May-22 13:31N 32°23' W 090°53'1 1.1
2017-May-22 13:01N 32°23' W 090°53'1 1.2
2017-May-22 12:31N 32°23' W 090°53'2 3.5
2017-May-22 12:01N 32°21' W 090°53'2 3.3
2017-May-22 11:31N 32°20' W 090°54'0 0.1
2017-May-22 11:01N 32°20' W 090°54'1 2.3
2017-May-22 10:30N 32°21' W 090°53'2 4.9
2017-May-22 10:00N 32°23' W 090°53'0 0.0
2017-May-22 09:30N 32°23' W 090°53'0 0.0
2017-May-22 09:01N 32°23' W 090°53'0 0.0
2017-May-22 08:31N 32°23' W 090°53'0 0.0
2017-May-22 08:01N 32°23' W 090°53'0 0.0
2017-May-22 07:31N 32°23' W 090°53'0 0.0
2017-May-22 07:01N 32°23' W 090°53'0 0.0
2017-May-22 06:31N 32°23' W 090°53'0 0.0
2017-May-22 06:01N 32°23' W 090°53'0 0.0
2017-May-22 05:31N 32°23' W 090°53'0 0.0
2017-May-22 05:01N 32°23' W 090°53'0 0.0
2017-May-22 04:31N 32°23' W 090°53'0 0.0
2017-May-22 04:01N 32°23' W 090°53'0 0.0
2017-May-22 03:31N 32°23' W 090°53'0 0.0
2017-May-22 03:01N 32°23' W 090°53'0 0.0
2017-May-22 02:31N 32°23' W 090°53'0 0.0
2017-May-22 02:00N 32°23' W 090°53'0 0.0
2017-May-22 01:30N 32°23' W 090°53'0 0.3
2017-May-22 01:00N 32°23' W 090°53'0 0.0
2017-May-22 00:30N 32°23' W 090°53'1 2.3
2017-May-22 00:00N 32°22' W 090°53'2 4.6
2017-May-21 23:30N 32°20' W 090°54'0 1.0
2017-May-21 23:00N 32°20' W 090°54'0 0.0
2017-May-21 22:30N 32°20' W 090°54'2 4.1
2017-May-21 22:00N 32°22' W 090°53'2 5.0
2017-May-21 21:30N 32°23' W 090°55'2 3.8
2017-May-21 21:00N 32°22' W 090°53'0 0.0
2017-May-21 20:30N 32°22' W 090°53'0 0.0
2017-May-21 20:00N 32°22' W 090°53'1 1.2
2017-May-21 19:30N 32°23' W 090°53'1 1.1
2017-May-21 19:00N 32°23' W 090°53'0 0.0
2017-May-21 18:30N 32°23' W 090°53'0 0.0
2017-May-21 18:00N 32°23' W 090°53'0 0.0
2017-May-21 17:30N 32°23' W 090°53'0 0.0
2017-May-21 17:00N 32°23' W 090°53'0 0.0
2017-May-21 16:30N 32°23' W 090°53'0 0.0
2017-May-21 16:00N 32°23' W 090°53'0 0.0
2017-May-21 15:30N 32°23' W 090°53'0 0.0
2017-May-21 15:00N 32°23' W 090°53'0 0.0
2017-May-21 14:30N 32°23' W 090°53'0 0.0
2017-May-21 13:30N 32°23' W 090°53'0 0.6
2017-May-21 13:00N 32°23' W 090°53'2 3.1
2017-May-21 12:30N 32°22' W 090°53'2 3.8
2017-May-21 12:00N 32°20' W 090°54'0 0.4
2017-May-21 11:30N 32°20' W 090°54'0 0.0
2017-May-21 11:00N 32°20' W 090°54'1 1.3
2017-May-21 10:30N 32°20' W 090°54'1 2.0
2017-May-21 10:00N 32°21' W 090°53'2 3.9
2017-May-21 09:30N 32°23' W 090°53'2 4.8
2017-May-21 09:00N 32°21' W 090°53'1 2.2
2017-May-21 08:30N 32°20' W 090°54'0 0.0
2017-May-21 08:00N 32°20' W 090°54'0 0.0
2017-May-21 07:30N 32°20' W 090°54'2 4.1
2017-May-21 07:00N 32°22' W 090°53'0 0.0
2017-May-21 06:30N 32°22' W 090°53'0 0.0
2017-May-21 06:00N 32°22' W 090°53'1 2.6
2017-May-21 05:30N 32°20' W 090°54'2 3.3
2017-May-21 05:00N 32°19' W 090°55'1 1.9
2017-May-21 04:30N 32°18' W 090°55'0 0.1
2017-May-21 04:00N 32°18' W 090°55'1 1.9
2017-May-21 03:30N 32°19' W 090°54'3 6.4
2017-May-21 03:00N 32°22' W 090°53'0 0.1
2017-May-21 02:30N 32°22' W 090°53'2 3.4
2017-May-21 02:00N 32°23' W 090°54'1 2.0
2017-May-21 01:30N 32°22' W 090°53'1 1.7
2017-May-21 01:01N 32°22' W 090°53'2 3.8
2017-May-21 00:31N 32°20' W 090°54'0 0.3
2017-May-21 00:01N 32°20' W 090°54'0 0.0
2017-May-20 23:30N 32°20' W 090°54'0 0.0
2017-May-20 23:01N 32°20' W 090°54'1 1.4
2017-May-20 22:30N 32°20' W 090°54'3 5.7
2017-May-20 22:01N 32°23' W 090°53'1 1.6
2017-May-20 21:30N 32°23' W 090°54'0 0.4
2017-May-20 21:00N 32°23' W 090°54'0 0.0
2017-May-20 20:30N 32°23' W 090°54'0 0.0
2017-May-20 20:00N 32°23' W 090°54'0 0.1
2017-May-20 19:31N 32°23' W 090°54'2 3.2
2017-May-20 19:00N 32°22' W 090°53'3 5.0
2017-May-20 18:30N 32°20' W 090°54'0 0.2
2017-May-20 18:00N 32°20' W 090°54'0 0.0
2017-May-20 17:30N 32°20' W 090°54'0 0.0
2017-May-20 17:00N 32°20' W 090°54'3 5.3
2017-May-20 16:30N 32°22' W 090°53'0 0.9
2017-May-20 16:00N 32°22' W 090°53'0 0.5
2017-May-20 15:30N 32°22' W 090°53'2 4.0
2017-May-20 15:00N 32°20' W 090°54'1 1.6
2017-May-20 14:31N 32°20' W 090°54'0 0.0
2017-May-20 13:30N 32°20' W 090°54'0 0.0
2017-May-20 13:00N 32°20' W 090°54'0 0.0
2017-May-20 12:30N 32°20' W 090°54'0 0.0
2017-May-20 12:00N 32°20' W 090°54'0 0.0
2017-May-20 11:30N 32°20' W 090°54'0 0.0
2017-May-20 11:00N 32°20' W 090°54'2 3.7
2017-May-20 10:30N 32°21' W 090°53'2 3.7
2017-May-20 10:00N 32°23' W 090°53'0 0.0
2017-May-20 09:30N 32°23' W 090°53'0 0.0
2017-May-20 09:00N 32°23' W 090°53'0 0.0
2017-May-20 08:30N 32°23' W 090°53'0 0.0
2017-May-20 08:00N 32°23' W 090°53'0 0.0
2017-May-20 07:30N 32°23' W 090°53'0 0.6
2017-May-20 07:00N 32°23' W 090°53'2 3.1
2017-May-20 06:30N 32°22' W 090°53'1 2.6
2017-May-20 06:00N 32°20' W 090°54'2 4.8
2017-May-20 05:30N 32°21' W 090°56'0 0.6
2017-May-20 05:00N 32°21' W 090°56'2 3.1
2017-May-20 04:30N 32°20' W 090°54'2 3.2
2017-May-20 04:00N 32°21' W 090°53'2 3.5
2017-May-20 03:30N 32°23' W 090°53'0 0.2
2017-May-20 03:00N 32°23' W 090°53'0 0.0
2017-May-20 02:30N 32°23' W 090°53'0 0.0
2017-May-20 02:00N 32°23' W 090°53'0 0.0
2017-May-20 01:30N 32°23' W 090°53'0 0.0
2017-May-20 01:00N 32°23' W 090°53'0 0.0
2017-May-20 00:30N 32°23' W 090°53'1 1.6
2017-May-20 00:00N 32°22' W 090°53'1 2.9
2017-May-19 23:30N 32°21' W 090°53'1 2.7
2017-May-19 23:00N 32°20' W 090°54'2 3.0
2017-May-19 22:30N 32°21' W 090°53'1 1.1
2017-May-19 22:00N 32°22' W 090°53'0 0.0
2017-May-19 21:30N 32°22' W 090°53'0 0.0
2017-May-19 21:00N 32°22' W 090°53'0 0.0
2017-May-19 20:30N 32°22' W 090°53'0 0.0
2017-May-19 20:00N 32°22' W 090°53'1 1.8
2017-May-19 19:30N 32°22' W 090°53'1 2.8
2017-May-19 19:00N 32°23' W 090°55'1 2.9
2017-May-19 18:30N 32°22' W 090°53'1 1.6
2017-May-19 18:00N 32°22' W 090°53'0 0.2
2017-May-19 17:30N 32°22' W 090°53'0 0.0
2017-May-19 17:00N 32°22' W 090°53'0 0.0
2017-May-19 16:30N 32°22' W 090°53'0 0.0
2017-May-19 16:00N 32°22' W 090°53'0 0.0
2017-May-19 15:30N 32°22' W 090°53'0 0.0
2017-May-19 15:00N 32°22' W 090°53'0 0.0
2017-May-19 14:00N 32°22' W 090°53'0 0.0
2017-May-19 13:30N 32°22' W 090°53'0 0.0
2017-May-19 13:00N 32°22' W 090°53'0 0.0
2017-May-19 12:30N 32°22' W 090°53'0 0.0
2017-May-19 12:00N 32°22' W 090°53'1 1.4
2017-May-19 11:30N 32°21' W 090°53'1 2.7
2017-May-19 11:00N 32°20' W 090°54'1 2.2
2017-May-19 10:30N 32°21' W 090°53'2 4.8
2017-May-19 10:00N 32°23' W 090°53'0 0.9
2017-May-19 09:30N 32°23' W 090°53'0 0.0
2017-May-19 09:00N 32°23' W 090°53'0 0.0
2017-May-19 08:30N 32°23' W 090°53'0 0.0
2017-May-19 08:00N 32°23' W 090°53'0 0.0
2017-May-19 07:30N 32°23' W 090°53'0 0.0
2017-May-19 07:00N 32°23' W 090°53'0 0.0
2017-May-19 06:30N 32°23' W 090°53'0 0.0
2017-May-19 06:00N 32°23' W 090°53'0 0.0
2017-May-19 05:30N 32°23' W 090°53'0 0.0
2017-May-19 05:00N 32°23' W 090°53'0 0.0
2017-May-19 04:30N 32°23' W 090°53'0 0.0
2017-May-19 04:00N 32°23' W 090°53'0 0.0
2017-May-19 03:30N 32°23' W 090°53'  
Track history (hours):
 
Tides and Currents Weather Stations Pressure Air Temp Water Temp Dewpoint Dewpoint Depression Visibility Wind Speed Wind Dir Waves Ship Positions

Maritime

Owner: ERGON MARINE & INDUSTRIAL SUPPLY, VICKSBURG, MS. More information available from US FCC via Universal Licensing System.

Last reported at 2017-May-29 03:30 UTC. Time now 2017-May-29 03:50 UTC.
Position N 32°23' W 090°53'.

; draft 3 m.

Type: Towing. MMSI: 367327920.

Date/timePositionNaut miles runAvg speedWind from/ knotsBaromVisibWave heightAir tempDewpointWater temp
2017-May-29 03:30N 32°23' W 090°53'0 0.0
2017-May-29 03:00N 32°23' W 090°53'0 0.0
2017-May-29 02:30N 32°23' W 090°53'0 0.0
2017-May-29 02:00N 32°23' W 090°53'0 0.0
2017-May-29 01:30N 32°23' W 090°53'0 0.0
2017-May-29 01:00N 32°23' W 090°53'0 0.2
2017-May-29 00:30N 32°23' W 090°53'1 2.9
2017-May-29 00:00N 32°22' W 090°53'2 3.4
2017-May-28 23:30N 32°20' W 090°54'1 1.4
2017-May-28 23:01N 32°20' W 090°54'0 0.0
2017-May-28 22:30N 32°20' W 090°54'2 4.2
2017-May-28 22:00N 32°22' W 090°53'0 0.0
2017-May-28 21:30N 32°22' W 090°53'0 0.0
2017-May-28 21:00N 32°22' W 090°53'1 2.4
2017-May-28 20:30N 32°21' W 090°54'1 1.3
2017-May-28 20:00N 32°20' W 090°54'2 3.5
2017-May-28 19:30N 32°22' W 090°53'0 0.0
2017-May-28 19:00N 32°22' W 090°53'0 0.0
2017-May-28 18:30N 32°22' W 090°53'1 2.1
2017-May-28 18:00N 32°23' W 090°52'1 2.1
2017-May-28 17:30N 32°22' W 090°53'0 0.0
2017-May-28 17:00N 32°22' W 090°53'0 0.0
2017-May-28 16:30N 32°22' W 090°53'0 0.0
2017-May-28 16:00N 32°22' W 090°53'0 0.4
2017-May-28 15:30N 32°22' W 090°53'2 4.1
2017-May-28 15:00N 32°23' W 090°55'1 1.1
2017-May-28 14:00N 32°23' W 090°53'0 0.0
2017-May-28 13:30N 32°23' W 090°53'0 0.0
2017-May-28 13:00N 32°23' W 090°53'1 1.9
2017-May-28 12:30N 32°22' W 090°53'2 3.9
2017-May-28 12:00N 32°20' W 090°54'1 1.7
2017-May-28 11:30N 32°20' W 090°54'0 0.0
2017-May-28 11:00N 32°20' W 090°54'0 0.0
2017-May-28 10:30N 32°20' W 090°54'0 0.6
2017-May-28 10:00N 32°20' W 090°54'2 3.4
2017-May-28 09:30N 32°21' W 090°53'0 0.0
2017-May-28 09:00N 32°21' W 090°53'1 1.5
2017-May-28 08:30N 32°22' W 090°53'0 0.8
2017-May-28 08:00N 32°22' W 090°53'0 0.2
2017-May-28 07:30N 32°22' W 090°53'0 0.8
2017-May-28 07:00N 32°22' W 090°53'1 2.5
2017-May-28 06:30N 32°23' W 090°53'0 0.0
2017-May-28 06:00N 32°23' W 090°53'0 0.0
2017-May-28 05:30N 32°23' W 090°53'0 0.0
2017-May-28 05:00N 32°23' W 090°53'0 0.0
2017-May-28 04:30N 32°23' W 090°53'0 0.0
2017-May-28 04:00N 32°23' W 090°53'0 0.0
2017-May-28 03:30N 32°23' W 090°53'0 0.0
2017-May-28 03:00N 32°23' W 090°53'1 1.9
2017-May-28 02:30N 32°23' W 090°52'1 2.1
2017-May-28 02:00N 32°22' W 090°53'0 0.1
2017-May-28 01:30N 32°22' W 090°53'1 1.4
2017-May-28 01:00N 32°22' W 090°53'2 3.5
2017-May-28 00:30N 32°23' W 090°55'2 3.8
2017-May-28 00:00N 32°22' W 090°53'2 3.4
2017-May-27 23:30N 32°21' W 090°53'1 2.1
2017-May-27 23:00N 32°20' W 090°54'0 0.0
2017-May-27 22:30N 32°20' W 090°54'1 1.3
2017-May-27 22:00N 32°20' W 090°54'0 0.6
2017-May-27 21:30N 32°20' W 090°54'1 1.7
2017-May-27 21:00N 32°20' W 090°54'2 3.8
2017-May-27 20:30N 32°18' W 090°55'0 0.3
2017-May-27 20:00N 32°18' W 090°55'0 0.1
2017-May-27 19:30N 32°18' W 090°55'0 0.1
2017-May-27 19:00N 32°18' W 090°55'0 0.2
2017-May-27 18:30N 32°18' W 090°55'0 0.2
2017-May-27 18:00N 32°18' W 090°55'0 0.3
2017-May-27 17:30N 32°18' W 090°55'3 5.9
2017-May-27 17:00N 32°21' W 090°53'1 2.3
2017-May-27 16:30N 32°22' W 090°53'0 0.1
2017-May-27 16:00N 32°22' W 090°53'0 0.0
2017-May-27 15:30N 32°22' W 090°53'0 0.0
2017-May-27 15:00N 32°22' W 090°53'2 1.6
2017-May-27 14:00N 32°23' W 090°53'1 1.3
2017-May-27 13:30N 32°23' W 090°53'0 0.8
2017-May-27 13:00N 32°22' W 090°53'1 1.6
2017-May-27 12:30N 32°22' W 090°53'2 3.8
2017-May-27 12:00N 32°20' W 090°54'0 0.4
2017-May-27 11:30N 32°20' W 090°54'0 0.0
2017-May-27 11:00N 32°20' W 090°54'1 1.0
2017-May-27 10:30N 32°20' W 090°54'2 3.4
2017-May-27 10:00N 32°22' W 090°53'1 1.7
2017-May-27 09:30N 32°22' W 090°52'1 1.4
2017-May-27 09:00N 32°23' W 090°53'0 0.5
2017-May-27 08:30N 32°23' W 090°53'1 1.3
2017-May-27 08:00N 32°23' W 090°53'0 0.0
2017-May-27 07:30N 32°23' W 090°53'0 0.0
2017-May-27 07:00N 32°23' W 090°53'0 0.0
2017-May-27 06:30N 32°23' W 090°53'0 0.0
2017-May-27 06:00N 32°23' W 090°53'0 0.0
2017-May-27 05:30N 32°23' W 090°53'0 0.3
2017-May-27 05:00N 32°23' W 090°53'1 2.6
2017-May-27 04:30N 32°23' W 090°54'0 0.2
2017-May-27 04:00N 32°23' W 090°54'2 3.5
2017-May-27 03:30N 32°22' W 090°53'1 1.3
2017-May-27 03:00N 32°22' W 090°53'0 0.7
2017-May-27 02:30N 32°22' W 090°53'2 3.8
2017-May-27 02:00N 32°24' W 090°55'1 2.0
2017-May-27 01:30N 32°23' W 090°54'1 2.3
2017-May-27 01:00N 32°22' W 090°53'1 2.3
2017-May-27 00:30N 32°21' W 090°53'1 2.4
2017-May-27 00:00N 32°20' W 090°54'0 0.0
2017-May-26 23:30N 32°20' W 090°54'1 1.1
2017-May-26 23:00N 32°20' W 090°54'1 2.3
2017-May-26 22:30N 32°21' W 090°53'2 4.3
2017-May-26 22:00N 32°23' W 090°53'1 1.8
2017-May-26 21:30N 32°23' W 090°53'0 1.0
2017-May-26 21:00N 32°23' W 090°54'0 0.1
2017-May-26 20:30N 32°23' W 090°54'1 2.1
2017-May-26 20:00N 32°23' W 090°53'1 1.5
2017-May-26 19:30N 32°23' W 090°54'0 0.8
2017-May-26 19:00N 32°23' W 090°54'1 1.9
2017-May-26 18:30N 32°23' W 090°53'0 0.7
2017-May-26 18:00N 32°23' W 090°53'0 0.2
2017-May-26 17:30N 32°23' W 090°53'0 0.0
2017-May-26 17:00N 32°23' W 090°53'0 0.0
2017-May-26 16:30N 32°23' W 090°53'0 0.0
2017-May-26 16:00N 32°23' W 090°53'0 0.8
2017-May-26 15:30N 32°23' W 090°53'0 0.0
2017-May-26 15:00N 32°23' W 090°53'1 0.8
2017-May-26 14:00N 32°23' W 090°54'0 0.5
2017-May-26 13:30N 32°23' W 090°53'2 3.8
2017-May-26 13:00N 32°21' W 090°53'1 1.8
2017-May-26 12:30N 32°20' W 090°54'0 0.0
2017-May-26 12:00N 32°20' W 090°54'0 0.8
2017-May-26 11:30N 32°20' W 090°54'1 1.0
2017-May-26 11:00N 32°20' W 090°54'0 0.0
2017-May-26 10:30N 32°20' W 090°54'3 5.4
2017-May-26 10:00N 32°22' W 090°53'1 2.4
2017-May-26 09:30N 32°23' W 090°53'0 0.0
2017-May-26 09:00N 32°23' W 090°53'0 0.0
2017-May-26 08:30N 32°23' W 090°53'0 0.0
2017-May-26 08:00N 32°23' W 090°53'0 0.0
2017-May-26 07:30N 32°23' W 090°53'0 0.0
2017-May-26 07:00N 32°23' W 090°53'0 0.0
2017-May-26 06:30N 32°23' W 090°53'0 0.0
2017-May-26 06:00N 32°23' W 090°53'0 0.8
2017-May-26 05:30N 32°23' W 090°54'1 1.1
2017-May-26 05:00N 32°23' W 090°53'0 0.0
2017-May-26 04:30N 32°23' W 090°53'0 0.6
2017-May-26 04:00N 32°23' W 090°53'0 0.0
2017-May-26 03:30N 32°23' W 090°53'0 0.0
2017-May-26 03:00N 32°23' W 090°53'0 0.8
2017-May-26 02:30N 32°23' W 090°53'0 0.0
2017-May-26 02:00N 32°23' W 090°53'0 0.2
2017-May-26 01:30N 32°23' W 090°53'1 1.8
2017-May-26 01:00N 32°22' W 090°53'2 3.2
2017-May-26 00:30N 32°23' W 090°55'2 3.8
2017-May-26 00:00N 32°22' W 090°53'2 4.4
2017-May-25 23:30N 32°20' W 090°54'1 1.2
2017-May-25 23:00N 32°20' W 090°54'1 1.4
2017-May-25 22:30N 32°20' W 090°54'0 0.0
2017-May-25 22:00N 32°20' W 090°54'2 4.3
2017-May-25 21:30N 32°22' W 090°53'1 2.2
2017-May-25 21:00N 32°23' W 090°53'0 0.0
2017-May-25 20:30N 32°23' W 090°53'0 0.9
2017-May-25 20:00N 32°23' W 090°54'0 0.7
2017-May-25 19:30N 32°23' W 090°53'1 2.8
2017-May-25 19:00N 32°22' W 090°53'0 0.3
2017-May-25 18:30N 32°22' W 090°53'0 0.7
2017-May-25 18:00N 32°22' W 090°53'1 2.6
2017-May-25 17:30N 32°23' W 090°53'0 0.1
2017-May-25 17:00N 32°23' W 090°53'1 2.8
2017-May-25 16:30N 32°22' W 090°53'1 2.5
2017-May-25 16:00N 32°23' W 090°53'0 0.5
2017-May-25 15:30N 32°23' W 090°53'0 0.4
2017-May-25 15:00N 32°23' W 090°53'3 2.5
2017-May-25 14:00N 32°21' W 090°54'0 0.7
2017-May-25 13:30N 32°20' W 090°54'0 0.0
2017-May-25 13:00N 32°20' W 090°54'0 0.0
2017-May-25 12:31N 32°20' W 090°54'0 0.0
2017-May-25 12:00N 32°20' W 090°54'0 0.0
2017-May-25 11:30N 32°20' W 090°54'1 1.3
2017-May-25 11:00N 32°20' W 090°54'0 0.0
2017-May-25 10:30N 32°20' W 090°54'2 4.0
2017-May-25 10:00N 32°21' W 090°53'0 0.0
2017-May-25 09:30N 32°21' W 090°53'0 0.0
2017-May-25 09:00N 32°21' W 090°53'0 0.0
2017-May-25 08:30N 32°21' W 090°53'0 0.0
2017-May-25 08:00N 32°21' W 090°53'0 0.0
2017-May-25 07:30N 32°21' W 090°53'0 0.0
2017-May-25 07:01N 32°21' W 090°53'0 0.0
2017-May-25 06:30N 32°21' W 090°53'0 0.0
2017-May-25 06:00N 32°21' W 090°53'0 0.0
2017-May-25 05:30N 32°21' W 090°53'0 0.0
2017-May-25 05:00N 32°21' W 090°53'0 0.0
2017-May-25 04:30N 32°21' W 090°53'0 0.0
2017-May-25 04:00N 32°21' W 090°53'2 3.2
2017-May-25 03:30N 32°20' W 090°54'0 0.9
2017-May-25 03:00N 32°20' W 090°54'0 0.0
2017-May-25 02:30N 32°20' W 090°54'0 0.0
2017-May-25 02:00N 32°20' W 090°54'0 0.0
2017-May-25 01:30N 32°20' W 090°54'0 0.0
2017-May-25 01:00N 32°20' W 090°54'0 0.0
2017-May-25 00:31N 32°20' W 090°54'0 0.0
2017-May-25 00:00N 32°20' W 090°54'2 4.3
2017-May-24 23:30N 32°18' W 090°56'2 3.9
2017-May-24 23:01N 32°19' W 090°54'0 0.3
2017-May-24 22:30N 32°20' W 090°54'0 0.0
2017-May-24 22:01N 32°20' W 090°54'0 0.1
2017-May-24 21:30N 32°20' W 090°54'2 4.3
2017-May-24 21:01N 32°18' W 090°56'0 0.1
2017-May-24 20:31N 32°18' W 090°56'2 3.8
2017-May-24 20:00N 32°19' W 090°54'0 0.7
2017-May-24 19:30N 32°20' W 090°54'3 5.9
2017-May-24 19:00N 32°21' W 090°57'0 0.5
2017-May-24 18:30N 32°21' W 090°57'1 1.0
2017-May-24 18:00N 32°21' W 090°56'2 4.6
2017-May-24 17:30N 32°20' W 090°54'0 0.0
2017-May-24 17:00N 32°20' W 090°54'2 4.3
2017-May-24 16:30N 32°18' W 090°56'1 1.2
2017-May-24 16:00N 32°18' W 090°55'2 3.2
2017-May-24 15:30N 32°20' W 090°54'2 3.7
2017-May-24 15:00N 32°18' W 090°55'1 1.3
2017-May-24 14:30N 32°18' W 090°56'2 2.5
2017-May-24 13:30N 32°20' W 090°54'3 6.8
2017-May-24 13:00N 32°21' W 090°57'2 3.7
2017-May-24 12:30N 32°21' W 090°55'2 3.5
2017-May-24 12:00N 32°20' W 090°54'0 0.0
2017-May-24 11:30N 32°20' W 090°54'0 0.0
2017-May-24 11:01N 32°20' W 090°54'0 0.0
2017-May-24 10:30N 32°20' W 090°54'0 0.0
2017-May-24 10:00N 32°20' W 090°54'2 3.3
2017-May-24 09:30N 32°21' W 090°55'0 0.6
2017-May-24 09:01N 32°21' W 090°55'2 3.8
2017-May-24 08:31N 32°20' W 090°54'3 5.0
2017-May-24 08:01N 32°21' W 090°56'1 2.6
2017-May-24 07:30N 32°21' W 090°58'2 3.8
2017-May-24 07:00N 32°21' W 090°56'2 4.1
2017-May-24 06:30N 32°20' W 090°54'0 0.0
2017-May-24 06:00N 32°20' W 090°54'2 4.0
2017-May-24 05:30N 32°21' W 090°56'2 3.2
2017-May-24 05:00N 32°20' W 090°54'0 0.8
2017-May-24 04:30N 32°20' W 090°54'3 5.5
2017-May-24 04:00N 32°22' W 090°53'2 4.9
2017-May-24 03:30N 32°24' W 090°55'1 1.0
2017-May-24 03:01N 32°23' W 090°55'2 4.0
2017-May-24 02:30N 32°22' W 090°53'1 2.1
2017-May-24 02:00N 32°23' W 090°53'2 3.6
2017-May-24 01:30N 32°21' W 090°53'1 1.3
2017-May-24 01:00N 32°22' W 090°53'1 2.8
2017-May-24 00:30N 32°23' W 090°53'0 0.6
2017-May-24 00:00N 32°23' W 090°53'0 0.6
2017-May-23 23:30N 32°23' W 090°53'0 0.5
2017-May-23 23:00N 32°23' W 090°53'1 1.5
2017-May-23 22:30N 32°23' W 090°54'1 2.1
2017-May-23 22:00N 32°22' W 090°53'1 3.0
2017-May-23 21:30N 32°23' W 090°55'1 2.4
2017-May-23 21:00N 32°22' W 090°53'2 3.1
2017-May-23 20:30N 32°21' W 090°53'2 4.4
2017-May-23 20:00N 32°23' W 090°53'2 4.1
2017-May-23 19:30N 32°21' W 090°53'2 4.7
2017-May-23 19:00N 32°21' W 090°56'1 2.0
2017-May-23 18:30N 32°21' W 090°57'0 0.0
2017-May-23 18:00N 32°21' W 090°57'0 0.0
2017-May-23 17:30N 32°21' W 090°57'0 0.2
2017-May-23 17:00N 32°21' W 090°57'1 1.2
2017-May-23 16:30N 32°21' W 090°56'2 4.0
2017-May-23 16:00N 32°20' W 090°54'2 3.1
2017-May-23 15:30N 32°22' W 090°53'0 0.2
2017-May-23 15:00N 32°21' W 090°53'2 3.3
2017-May-23 14:30N 32°23' W 090°53'0 0.0
2017-May-23 13:30N 32°23' W 090°53'0 0.7
2017-May-23 13:00N 32°23' W 090°53'0 0.6
2017-May-23 12:30N 32°23' W 090°53'1 3.0
2017-May-23 12:00N 32°22' W 090°53'1 2.7
2017-May-23 11:30N 32°21' W 090°53'1 2.3
2017-May-23 11:00N 32°20' W 090°54'2 4.9
2017-May-23 10:30N 32°22' W 090°53'1 2.8
2017-May-23 10:00N 32°23' W 090°53'1 2.8
2017-May-23 09:30N 32°22' W 090°53'2 4.1
2017-May-23 09:00N 32°20' W 090°54'2 4.0
2017-May-23 08:30N 32°21' W 090°56'0 0.0
2017-May-23 08:00N 32°21' W 090°56'0 0.0
2017-May-23 07:30N 32°21' W 090°56'2 3.5
2017-May-23 07:00N 32°20' W 090°54'3 5.7
2017-May-23 06:30N 32°23' W 090°53'1 1.1
2017-May-23 06:00N 32°23' W 090°53'0 0.2
2017-May-23 05:30N 32°23' W 090°53'0 0.4
2017-May-23 05:00N 32°23' W 090°53'0 0.2
2017-May-23 04:30N 32°23' W 090°53'0 0.0
2017-May-23 04:00N 32°23' W 090°53'0 0.0
2017-May-23 03:30N 32°23' W 090°53'0 0.0
2017-May-23 03:00N 32°23' W 090°53'0 0.0
2017-May-23 02:30N 32°23' W 090°53'0 0.5
2017-May-23 02:00N 32°23' W 090°54'0 0.5
2017-May-23 01:30N 32°23' W 090°54'0 0.1
2017-May-23 01:00N 32°23' W 090°54'1 2.7
2017-May-23 00:30N 32°23' W 090°53'2 4.5
2017-May-23 00:00N 32°21' W 090°54'1 2.0
2017-May-22 23:30N 32°20' W 090°54'1 2.2
2017-May-22 23:00N 32°19' W 090°55'1 2.5
2017-May-22 22:30N 32°18' W 090°56'0 0.0
2017-May-22 22:00N 32°18' W 090°56'0 0.1
2017-May-22 21:30N 32°18' W 090°56'0 0.5
2017-May-22 21:00N 32°18' W 090°56'4 7.3
2017-May-22 20:31N 32°21' W 090°53'2 4.8
2017-May-22 20:01N 32°23' W 090°53'0 0.4
2017-May-22 19:30N 32°23' W 090°53'0 0.0
2017-May-22 19:01N 32°23' W 090°53'0 0.0
2017-May-22 18:31N 32°23' W 090°53'0 0.0
2017-May-22 18:00N 32°23' W 090°53'0 0.0
2017-May-22 17:30N 32°23' W 090°53'0 0.0
2017-May-22 17:01N 32°23' W 090°53'0 0.0
2017-May-22 16:31N 32°23' W 090°53'0 0.0
2017-May-22 16:01N 32°23' W 090°53'0 0.0
2017-May-22 15:31N 32°23' W 090°53'0 0.0
2017-May-22 15:01N 32°23' W 090°53'0 0.0
2017-May-22 14:01N 32°23' W 090°53'0 0.0
2017-May-22 13:31N 32°23' W 090°53'1 1.1
2017-May-22 13:01N 32°23' W 090°53'1 1.2
2017-May-22 12:31N 32°23' W 090°53'2 3.5
2017-May-22 12:01N 32°21' W 090°53'2 3.3
2017-May-22 11:31N 32°20' W 090°54'0 0.1
2017-May-22 11:01N 32°20' W 090°54'1 2.3
2017-May-22 10:30N 32°21' W 090°53'2 4.9
2017-May-22 10:00N 32°23' W 090°53'0 0.0
2017-May-22 09:30N 32°23' W 090°53'0 0.0
2017-May-22 09:01N 32°23' W 090°53'0 0.0
2017-May-22 08:31N 32°23' W 090°53'0 0.0
2017-May-22 08:01N 32°23' W 090°53'0 0.0
2017-May-22 07:31N 32°23' W 090°53'0 0.0
2017-May-22 07:01N 32°23' W 090°53'0 0.0
2017-May-22 06:31N 32°23' W 090°53'0 0.0
2017-May-22 06:01N 32°23' W 090°53'0 0.0
2017-May-22 05:31N 32°23' W 090°53'0 0.0
2017-May-22 05:01N 32°23' W 090°53'0 0.0
2017-May-22 04:31N 32°23' W 090°53'0 0.0
2017-May-22 04:01N 32°23' W 090°53'0 0.0
2017-May-22 03:31N 32°23' W 090°53'0 0.0
2017-May-22 03:01N 32°23' W 090°53'0 0.0
2017-May-22 02:31N 32°23' W 090°53'0 0.0
2017-May-22 02:00N 32°23' W 090°53'0 0.0
2017-May-22 01:30N 32°23' W 090°53'0 0.3
2017-May-22 01:00N 32°23' W 090°53'0 0.0
2017-May-22 00:30N 32°23' W 090°53'1 2.3
2017-May-22 00:00N 32°22' W 090°53'2 4.6
2017-May-21 23:30N 32°20' W 090°54'0 1.0
2017-May-21 23:00N 32°20' W 090°54'0 0.0
2017-May-21 22:30N 32°20' W 090°54'2 4.1
2017-May-21 22:00N 32°22' W 090°53'2 5.0
2017-May-21 21:30N 32°23' W 090°55'2 3.8
2017-May-21 21:00N 32°22' W 090°53'0 0.0
2017-May-21 20:30N 32°22' W 090°53'0 0.0
2017-May-21 20:00N 32°22' W 090°53'1 1.2
2017-May-21 19:30N 32°23' W 090°53'1 1.1
2017-May-21 19:00N 32°23' W 090°53'0 0.0
2017-May-21 18:30N 32°23' W 090°53'0 0.0
2017-May-21 18:00N 32°23' W 090°53'0 0.0
2017-May-21 17:30N 32°23' W 090°53'0 0.0
2017-May-21 17:00N 32°23' W 090°53'0 0.0
2017-May-21 16:30N 32°23' W 090°53'0 0.0
2017-May-21 16:00N 32°23' W 090°53'0 0.0
2017-May-21 15:30N 32°23' W 090°53'0 0.0
2017-May-21 15:00N 32°23' W 090°53'0 0.0
2017-May-21 14:30N 32°23' W 090°53'0 0.0
2017-May-21 13:30N 32°23' W 090°53'0 0.6
2017-May-21 13:00N 32°23' W 090°53'2 3.1
2017-May-21 12:30N 32°22' W 090°53'2 3.8
2017-May-21 12:00N 32°20' W 090°54'0 0.4
2017-May-21 11:30N 32°20' W 090°54'0 0.0
2017-May-21 11:00N 32°20' W 090°54'1 1.3
2017-May-21 10:30N 32°20' W 090°54'1 2.0
2017-May-21 10:00N 32°21' W 090°53'2 3.9
2017-May-21 09:30N 32°23' W 090°53'2 4.8
2017-May-21 09:00N 32°21' W 090°53'1 2.2
2017-May-21 08:30N 32°20' W 090°54'0 0.0
2017-May-21 08:00N 32°20' W 090°54'0 0.0
2017-May-21 07:30N 32°20' W 090°54'2 4.1
2017-May-21 07:00N 32°22' W 090°53'0 0.0
2017-May-21 06:30N 32°22' W 090°53'0 0.0
2017-May-21 06:00N 32°22' W 090°53'1 2.6
2017-May-21 05:30N 32°20' W 090°54'2 3.3
2017-May-21 05:00N 32°19' W 090°55'1 1.9
2017-May-21 04:30N 32°18' W 090°55'0 0.1
2017-May-21 04:00N 32°18' W 090°55'1 1.9
2017-May-21 03:30N 32°19' W 090°54'3 6.4
2017-May-21 03:00N 32°22' W 090°53'0 0.1
2017-May-21 02:30N 32°22' W 090°53'2 3.4
2017-May-21 02:00N 32°23' W 090°54'1 2.0
2017-May-21 01:30N 32°22' W 090°53'1 1.7
2017-May-21 01:01N 32°22' W 090°53'2 3.8
2017-May-21 00:31N 32°20' W 090°54'0 0.3
2017-May-21 00:01N 32°20' W 090°54'0 0.0
2017-May-20 23:30N 32°20' W 090°54'0 0.0
2017-May-20 23:01N 32°20' W 090°54'1 1.4
2017-May-20 22:30N 32°20' W 090°54'3 5.7
2017-May-20 22:01N 32°23' W 090°53'1 1.6
2017-May-20 21:30N 32°23' W 090°54'0 0.4
2017-May-20 21:00N 32°23' W 090°54'0 0.0
2017-May-20 20:30N 32°23' W 090°54'0 0.0
2017-May-20 20:00N 32°23' W 090°54'0 0.1
2017-May-20 19:31N 32°23' W 090°54'2 3.2
2017-May-20 19:00N 32°22' W 090°53'3 5.0
2017-May-20 18:30N 32°20' W 090°54'0 0.2
2017-May-20 18:00N 32°20' W 090°54'0 0.0
2017-May-20 17:30N 32°20' W 090°54'0 0.0
2017-May-20 17:00N 32°20' W 090°54'3 5.3
2017-May-20 16:30N 32°22' W 090°53'0 0.9
2017-May-20 16:00N 32°22' W 090°53'0 0.5
2017-May-20 15:30N 32°22' W 090°53'2 4.0
2017-May-20 15:00N 32°20' W 090°54'1 1.6
2017-May-20 14:31N 32°20' W 090°54'0 0.0
2017-May-20 13:30N 32°20' W 090°54'0 0.0
2017-May-20 13:00N 32°20' W 090°54'0 0.0
2017-May-20 12:30N 32°20' W 090°54'0 0.0
2017-May-20 12:00N 32°20' W 090°54'0 0.0
2017-May-20 11:30N 32°20' W 090°54'0 0.0
2017-May-20 11:00N 32°20' W 090°54'2 3.7
2017-May-20 10:30N 32°21' W 090°53'2 3.7
2017-May-20 10:00N 32°23' W 090°53'0 0.0
2017-May-20 09:30N 32°23' W 090°53'0 0.0
2017-May-20 09:00N 32°23' W 090°53'0 0.0
2017-May-20 08:30N 32°23' W 090°53'0 0.0
2017-May-20 08:00N 32°23' W 090°53'0 0.0
2017-May-20 07:30N 32°23' W 090°53'0 0.6
2017-May-20 07:00N 32°23' W 090°53'2 3.1
2017-May-20 06:30N 32°22' W 090°53'1 2.6
2017-May-20 06:00N 32°20' W 090°54'2 4.8
2017-May-20 05:30N 32°21' W 090°56'0 0.6
2017-May-20 05:00N 32°21' W 090°56'2 3.1
2017-May-20 04:30N 32°20' W 090°54'2 3.2
2017-May-20 04:00N 32°21' W 090°53'2 3.5
2017-May-20 03:30N 32°23' W 090°53'0 0.2
2017-May-20 03:00N 32°23' W 090°53'0 0.0
2017-May-20 02:30N 32°23' W 090°53'0 0.0
2017-May-20 02:00N 32°23' W 090°53'0 0.0
2017-May-20 01:30N 32°23' W 090°53'0 0.0
2017-May-20 01:00N 32°23' W 090°53'0 0.0
2017-May-20 00:30N 32°23' W 090°53'1 1.6
2017-May-20 00:00N 32°22' W 090°53'1 2.9
2017-May-19 23:30N 32°21' W 090°53'1 2.7
2017-May-19 23:00N 32°20' W 090°54'2 3.0
2017-May-19 22:30N 32°21' W 090°53'1 1.1
2017-May-19 22:00N 32°22' W 090°53'0 0.0
2017-May-19 21:30N 32°22' W 090°53'0 0.0
2017-May-19 21:00N 32°22' W 090°53'0 0.0
2017-May-19 20:30N 32°22' W 090°53'0 0.0
2017-May-19 20:00N 32°22' W 090°53'1 1.8
2017-May-19 19:30N 32°22' W 090°53'1 2.8
2017-May-19 19:00N 32°23' W 090°55'1 2.9
2017-May-19 18:30N 32°22' W 090°53'1 1.6
2017-May-19 18:00N 32°22' W 090°53'0 0.2
2017-May-19 17:30N 32°22' W 090°53'0 0.0
2017-May-19 17:00N 32°22' W 090°53'0 0.0
2017-May-19 16:30N 32°22' W 090°53'0 0.0
2017-May-19 16:00N 32°22' W 090°53'0 0.0
2017-May-19 15:30N 32°22' W 090°53'0 0.0
2017-May-19 15:00N 32°22' W 090°53'0 0.0
2017-May-19 14:00N 32°22' W 090°53'0 0.0
2017-May-19 13:30N 32°22' W 090°53'0 0.0
2017-May-19 13:00N 32°22' W 090°53'0 0.0
2017-May-19 12:30N 32°22' W 090°53'0 0.0
2017-May-19 12:00N 32°22' W 090°53'1 1.4
2017-May-19 11:30N 32°21' W 090°53'1 2.7
2017-May-19 11:00N 32°20' W 090°54'1 2.2
2017-May-19 10:30N 32°21' W 090°53'2 4.8
2017-May-19 10:00N 32°23' W 090°53'0 0.9
2017-May-19 09:30N 32°23' W 090°53'0 0.0
2017-May-19 09:00N 32°23' W 090°53'0 0.0
2017-May-19 08:30N 32°23' W 090°53'0 0.0
2017-May-19 08:00N 32°23' W 090°53'0 0.0
2017-May-19 07:30N 32°23' W 090°53'0 0.0
2017-May-19 07:00N 32°23' W 090°53'0 0.0
2017-May-19 06:30N 32°23' W 090°53'0 0.0
2017-May-19 06:00N 32°23' W 090°53'0 0.0
2017-May-19 05:30N 32°23' W 090°53'0 0.0
2017-May-19 05:00N 32°23' W 090°53'0 0.0
2017-May-19 04:30N 32°23' W 090°53'0 0.0
2017-May-19 04:00N 32°23' W 090°53'0 0.0
2017-May-19 03:30N 32°23' W 090°53'  

Dump ship's entire track history